Time;durP1;ratioP1;P1;durP2;ratioP2;P2;SDS_P1;SDS_P2;PMS_P1;PMS_P2;Temp;Humidity;BMP_temperature;BMP_pressure;BME280_temperature;BME280_humidity;BME280_pressure;Samples;Min_cycle;Max_cycle;Signal;HPM_P1;HPM_P2
2023/02/10 00:01:58;;;;;;;35.60;21.20;;;;;;;0.01;53.83;103903.13;106981;1272;23039;-59
2023/02/10 00:04:26;;;;;;;35.90;21.30;;;;;;;0.00;53.86;103901.57;107053;1260;25349;-58
2023/02/10 00:06:57;;;;;;;42.70;20.50;;;;;;;-0.01;53.59;103894.36;106313;1269;1002936;-58
2023/02/10 00:09:25;;;;;;;37.60;20.40;;;;;;;-0.01;53.31;103892.44;107061;1267;25341;-59
2023/02/10 00:11:56;;;;;;;38.20;21.50;;;;;;;-0.03;52.93;103890.05;107084;1273;25372;-59
2023/02/10 00:14:24;;;;;;;37.70;22.30;;;;;;;-0.07;52.71;103886.21;107039;1272;25494;-58
2023/02/10 00:16:53;;;;;;;37.80;21.50;;;;;;;-0.08;52.74;103889.90;107083;1269;24244;-58
2023/02/10 00:19:23;;;;;;;42.30;20.90;;;;;;;-0.08;52.71;103884.25;107061;1260;25303;-58
2023/02/10 00:21:51;;;;;;;35.60;20.60;;;;;;;-0.07;52.75;103881.22;106823;1272;24323;-58
2023/02/10 00:24:22;;;;;;;38.10;21.50;;;;;;;-0.05;52.61;103880.91;107054;1269;25418;-59
2023/02/10 00:26:50;;;;;;;37.40;20.50;;;;;;;-0.02;52.73;103881.61;107111;1271;25379;-58
2023/02/10 00:29:19;;;;;;;35.80;20.00;;;;;;;0.01;52.68;103876.17;107167;1272;25334;-59
2023/02/10 00:31:48;;;;;;;34.40;20.60;;;;;;;0.04;52.78;103874.98;107099;1270;22531;-59
2023/02/10 00:34:17;;;;;;;32.70;19.50;;;;;;;0.06;52.71;103868.13;107164;1267;25331;-58
2023/02/10 00:36:49;;;;;;;33.50;20.10;;;;;;;0.04;52.75;103864.92;106158;1273;1003639;-58
2023/02/10 00:39:18;;;;;;;34.20;20.50;;;;;;;0.00;52.79;103863.17;106344;1269;1003661;-59
2023/02/10 00:41:47;;;;;;;29.60;18.10;;;;;;;-0.03;52.70;103860.86;106797;1273;26509;-58
2023/02/10 00:44:17;;;;;;;26.80;18.20;;;;;;;-0.08;52.90;103860.90;107044;1267;25331;-58
2023/02/10 00:46:45;;;;;;;32.80;19.80;;;;;;;-0.11;52.77;103858.10;107004;1272;24260;-59
2023/02/10 00:49:14;;;;;;;32.10;18.60;;;;;;;-0.17;52.74;103855.83;106082;1269;1003116;-58
2023/02/10 00:51:43;;;;;;;35.00;20.50;;;;;;;-0.21;52.95;103852.79;107077;1270;25350;-59
2023/02/10 00:54:12;;;;;;;36.00;20.60;;;;;;;-0.23;53.11;103857.23;106769;1273;25334;-58
2023/02/10 00:56:41;;;;;;;31.80;19.10;;;;;;;-0.19;53.33;103855.83;106379;1267;1003055;-58
2023/02/10 00:59:12;;;;;;;35.50;19.40;;;;;;;-0.17;53.42;103853.92;106412;1273;1003032;-58
2023/02/10 01:01:41;;;;;;;34.90;19.80;;;;;;;-0.15;53.91;103854.23;106161;1267;1003624;-58
2023/02/10 01:04:09;;;;;;;40.70;20.30;;;;;;;-0.12;54.10;103857.70;107081;1267;22524;-58
2023/02/10 01:06:39;;;;;;;32.30;19.70;;;;;;;-0.07;54.34;103856.80;106303;1272;1003490;-58
2023/02/10 01:09:08;;;;;;;35.60;20.70;;;;;;;-0.05;54.51;103855.45;106727;1267;25353;-59
2023/02/10 01:11:37;;;;;;;32.30;20.00;;;;;;;-0.03;54.79;103851.50;106311;1267;1003592;-59
2023/02/10 01:14:06;;;;;;;33.20;19.10;;;;;;;-0.01;54.84;103852.88;106810;1270;26107;-58
2023/02/10 01:16:34;;;;;;;34.30;20.30;;;;;;;-0.00;55.03;103852.72;106297;1272;1003040;-58
2023/02/10 01:19:03;;;;;;;31.90;20.70;;;;;;;0.01;55.08;103848.33;107070;1267;22527;-58
2023/02/10 01:21:32;;;;;;;30.00;19.50;;;;;;;0.02;55.47;103843.48;106918;1270;22555;-58
2023/02/10 01:24:02;;;;;;;28.90;17.70;;;;;;;0.04;55.77;103839.35;106098;1271;1003075;-58
2023/02/10 01:26:34;;;;;;;34.30;18.50;;;;;;;0.07;55.88;103840.05;107083;1267;25525;-59
2023/02/10 01:29:02;;;;;;;32.40;19.00;;;;;;;0.09;55.86;103837.27;107111;1268;25414;-59
2023/02/10 01:31:32;;;;;;;30.40;19.30;;;;;;;0.09;55.85;103834.92;106371;1267;1003378;-58
2023/02/10 01:34:01;;;;;;;28.10;18.30;;;;;;;0.10;55.74;103836.30;107121;1267;25494;-59
2023/02/10 01:36:29;;;;;;;29.70;18.70;;;;;;;0.12;55.91;103838.34;106324;1270;1002943;-59
2023/02/10 01:38:58;;;;;;;28.10;17.60;;;;;;;0.14;55.95;103836.77;107151;1267;25526;-59
2023/02/10 01:41:27;;;;;;;34.70;19.50;;;;;;;0.14;56.03;103838.48;107111;1267;25568;-59
2023/02/10 01:43:59;;;;;;;34.40;20.60;;;;;;;0.14;56.21;103839.34;106313;1267;1002996;-58
2023/02/10 01:46:28;;;;;;;31.40;20.00;;;;;;;0.14;56.49;103838.48;106825;1254;22541;-58
2023/02/10 01:48:58;;;;;;;31.60;19.00;;;;;;;0.16;56.69;103835.39;105915;1275;1003169;-58
2023/02/10 01:51:41;;;;;;;34.00;20.30;;;;;;;0.20;56.77;103834.84;107117;1267;24384;-57
2023/02/10 01:54:12;;;;;;;31.70;20.50;;;;;;;0.27;56.79;103831.21;106883;1269;24238;-58
2023/02/10 01:56:41;;;;;;;32.20;19.10;;;;;;;0.34;56.59;103824.53;106831;1273;24349;-58
2023/02/10 01:59:09;;;;;;;32.90;19.80;;;;;;;0.36;56.31;103821.61;106910;1269;22521;-58
2023/02/10 02:01:38;;;;;;;31.20;18.90;;;;;;;0.35;56.02;103815.52;106407;1272;1003779;-58
2023/02/10 02:04:06;;;;;;;30.20;19.50;;;;;;;0.28;56.07;103816.94;107109;1267;22501;-58
2023/02/10 02:06:35;;;;;;;33.80;19.80;;;;;;;0.24;55.96;103816.51;106330;1267;1002973;-58
2023/02/10 02:09:04;;;;;;;35.40;20.10;;;;;;;0.22;55.96;103814.64;107143;1267;23254;-58
2023/02/10 02:11:43;;;;;;;25.50;17.10;;;;;;;0.21;56.04;103818.52;107028;1274;24251;-59
2023/02/10 02:14:12;;;;;;;28.20;17.80;;;;;;;0.22;55.92;103816.48;107015;1270;23062;-58
2023/02/10 02:17:02;;;;;;;33.80;19.10;;;;;;;0.22;55.77;103810.70;106358;1267;1002912;-59
2023/02/10 02:19:50;;;;;;;31.50;19.00;;;;;;;0.24;55.60;103809.85;107089;1270;24317;-59
2023/02/10 02:23:01;;;;;;;32.60;18.80;;;;;;;0.30;55.44;103804.27;106783;1270;22626;-59
2023/02/10 02:25:49;;;;;;;27.10;16.60;;;;;;;0.33;55.13;103803.63;106326;1276;25435;-58
2023/02/10 02:28:34;;;;;;;27.90;16.70;;;;;;;0.32;54.86;103804.60;106365;1277;22705;-59
2023/02/10 02:31:32;;;;;;;30.90;17.30;;;;;;;0.30;54.67;103808.69;106367;1276;25892;-58
2023/02/10 02:34:02;;;;;;;26.30;17.20;;;;;;;0.26;54.67;103811.86;105553;1276;1002821;-58
2023/02/10 02:36:33;;;;;;;33.30;19.70;;;;;;;0.23;54.59;103814.38;106368;1277;22546;-58
2023/02/10 02:39:03;;;;;;;26.90;18.70;;;;;;;0.19;54.57;103812.05;106333;1280;25429;-59
2023/02/10 02:41:33;;;;;;;28.70;19.00;;;;;;;0.14;54.77;103811.70;106263;1284;23926;-58
2023/02/10 02:44:04;;;;;;;31.10;19.50;;;;;;;0.08;54.79;103808.73;106350;1276;24418;-59
2023/02/10 02:46:42;;;;;;;31.40;20.00;;;;;;;0.09;54.92;103808.77;105606;1276;1002883;-58
2023/02/10 02:49:17;;;;;;;33.70;20.30;;;;;;;0.08;54.93;103807.53;106416;1276;24221;-58
2023/02/10 02:51:54;;;;;;;32.90;20.10;;;;;;;0.08;54.85;103809.59;105531;1277;1003141;-59
2023/02/10 02:54:48;;;;;;;31.90;20.60;;;;;;;0.09;54.72;103816.28;106338;1276;25377;-59
2023/02/10 02:57:34;;;;;;;27.00;19.50;;;;;;;0.08;54.77;103811.13;105577;1276;1002836;-58
2023/02/10 03:00:09;;;;;;;26.60;17.20;;;;;;;0.06;54.58;103809.92;106345;1276;24328;-59
2023/02/10 03:02:41;;;;;;;27.00;18.20;;;;;;;0.04;54.54;103808.92;106574;1275;22511;-58
2023/02/10 03:05:09;;;;;;;30.10;18.60;;;;;;;0.00;54.62;103807.69;106856;1270;25341;-58
2023/02/10 03:07:38;;;;;;;39.00;24.40;;;;;;;-0.03;54.46;103803.86;106798;1270;25555;-58
2023/02/10 03:10:07;;;;;;;27.40;18.70;;;;;;;-0.04;54.62;103801.23;106798;1269;25354;-58
2023/02/10 03:12:36;;;;;;;34.60;19.00;;;;;;;-0.04;54.63;103805.16;106818;1269;22653;-59
2023/02/10 03:15:05;;;;;;;29.30;18.90;;;;;;;-0.04;54.65;103804.00;106811;1270;25355;-58
2023/02/10 03:17:33;;;;;;;31.20;17.60;;;;;;;-0.04;54.71;103805.67;106662;1277;25328;-58
2023/02/10 03:20:02;;;;;;;30.30;19.30;;;;;;;-0.03;54.50;103805.06;106792;1272;25369;-58
2023/02/10 03:22:31;;;;;;;28.30;18.20;;;;;;;-0.02;54.44;103798.66;106744;1273;25361;-58
2023/02/10 03:24:59;;;;;;;29.10;18.60;;;;;;;-0.04;54.33;103796.17;106535;1274;25366;-59
2023/02/10 03:27:28;;;;;;;32.70;18.50;;;;;;;-0.06;54.15;103796.52;106066;1270;1002866;-58
2023/02/10 03:29:57;;;;;;;31.00;17.80;;;;;;;-0.06;53.99;103792.76;106875;1270;25369;-58
2023/02/10 03:32:25;;;;;;;32.10;19.40;;;;;;;-0.09;53.98;103793.05;106618;1278;24212;-58
2023/02/10 03:34:54;;;;;;;33.30;18.70;;;;;;;-0.12;53.86;103791.82;106837;1270;25330;-58
2023/02/10 03:37:23;;;;;;;29.80;17.90;;;;;;;-0.14;54.03;103791.17;106911;1269;25356;-58
2023/02/10 03:39:51;;;;;;;29.60;17.70;;;;;;;-0.17;54.18;103788.23;106167;1269;1003507;-58
2023/02/10 03:42:20;;;;;;;32.50;18.40;;;;;;;-0.16;54.43;103790.16;106158;1270;1003039;-58
2023/02/10 03:44:48;;;;;;;34.30;19.40;;;;;;;-0.12;54.61;103791.98;106780;1269;25334;-58
2023/02/10 03:47:17;;;;;;;30.30;18.90;;;;;;;-0.11;54.61;103790.38;106695;1276;22543;-59
2023/02/10 03:49:45;;;;;;;29.60;18.60;;;;;;;-0.10;54.48;103790.75;106859;1272;22536;-58
2023/02/10 03:52:14;;;;;;;34.00;18.80;;;;;;;-0.11;54.62;103790.02;106815;1269;25385;-58
2023/02/10 03:54:42;;;;;;;33.00;20.10;;;;;;;-0.13;54.61;103793.44;106067;1269;1003122;-58
2023/02/10 03:57:11;;;;;;;32.00;19.30;;;;;;;-0.16;54.62;103795.98;106884;1269;25337;-57
2023/02/10 03:59:39;;;;;;;30.40;18.10;;;;;;;-0.19;54.79;103794.96;106176;1270;1003057;-58
2023/02/10 06:27:36;;;;;;;36.10;22.50;;;;;;;-0.65;66.64;103847.04;103938;1279;1002861;-58
2023/02/10 06:30:06;;;;;;;37.70;22.20;;;;;;;0.73;61.27;103841.38;106199;1282;25543;-58
2023/02/10 06:32:34;;;;;;;34.90;21.90;;;;;;;1.06;60.13;103839.04;106266;1282;25402;-58
2023/02/10 06:35:01;;;;;;;33.70;22.70;;;;;;;1.29;58.76;103841.20;106213;1282;25514;-58
2023/02/10 06:37:29;;;;;;;35.10;24.60;;;;;;;1.48;57.91;103839.74;106179;1287;25366;-58
2023/02/10 06:39:57;;;;;;;34.10;23.20;;;;;;;1.75;57.54;103843.83;106114;1284;209880;-58
2023/02/10 06:42:25;;;;;;;32.80;22.30;;;;;;;2.01;56.46;103841.88;107064;1266;25368;-58
2023/02/10 06:44:52;;;;;;;33.00;23.00;;;;;;;2.25;55.50;103842.88;107024;1274;25366;-58
2023/02/10 06:47:19;;;;;;;39.90;24.50;;;;;;;2.43;54.80;103842.98;107223;1267;25337;-58
2023/02/10 06:49:46;;;;;;;33.60;23.10;;;;;;;2.60;54.25;103843.65;106341;1267;1003369;-58
2023/02/10 06:52:14;;;;;;;34.70;23.30;;;;;;;2.74;53.40;103840.53;107027;1267;25452;-58
2023/02/10 06:54:44;;;;;;;33.00;22.90;;;;;;;2.77;52.66;103839.39;107035;1267;25341;-58
2023/02/10 06:57:12;;;;;;;30.80;21.70;;;;;;;2.77;52.48;103841.60;106963;1267;25349;-58
2023/02/10 06:59:39;;;;;;;33.60;21.90;;;;;;;2.78;51.89;103842.14;106875;1267;25380;-58
2023/02/10 07:02:09;;;;;;;35.90;23.30;;;;;;;2.73;51.50;103843.41;105928;1267;1003494;-57
2023/02/10 07:04:36;;;;;;;33.70;21.80;;;;;;;2.61;51.08;103847.64;105991;1267;1003683;-58
2023/02/10 07:07:03;;;;;;;31.20;20.90;;;;;;;2.49;51.41;103846.27;106776;1270;25261;-57
2023/02/10 07:09:37;;;;;;;40.60;22.80;;;;;;;2.35;51.13;103846.05;106701;1273;24290;-57
2023/02/10 07:12:05;;;;;;;31.60;21.10;;;;;;;2.19;51.18;103842.02;107025;1267;25326;-57
2023/02/10 07:14:32;;;;;;;30.30;21.60;;;;;;;2.07;51.37;103839.02;107079;1267;25366;-57
2023/02/10 07:17:00;;;;;;;31.30;21.60;;;;;;;1.98;51.84;103840.01;106853;1270;25554;-57
2023/02/10 07:19:27;;;;;;;35.10;23.10;;;;;;;1.95;51.57;103838.44;106451;1267;1003330;-57
2023/02/10 07:21:56;;;;;;;40.40;26.10;;;;;;;1.93;51.69;103838.17;107081;1267;25429;-57
2023/02/10 07:24:24;;;;;;;38.60;25.20;;;;;;;1.95;51.76;103841.67;106315;1274;1003435;-57
2023/02/10 07:26:51;;;;;;;40.70;26.00;;;;;;;1.97;51.80;103841.28;107097;1268;25551;-57
2023/02/10 07:29:19;;;;;;;41.50;25.10;;;;;;;1.98;51.73;103846.67;106444;1267;1003354;-57
2023/02/10 07:31:48;;;;;;;39.70;24.40;;;;;;;2.01;51.98;103843.44;107086;1267;25404;-57
2023/02/10 07:34:19;;;;;;;37.30;22.80;;;;;;;2.04;51.74;103836.41;106489;1267;1003678;-57
2023/02/10 07:36:53;;;;;;;36.90;23.40;;;;;;;2.06;51.24;103836.04;107072;1267;25423;-57
2023/02/10 07:39:21;;;;;;;36.10;23.00;;;;;;;2.10;51.69;103835.92;106353;1267;1003632;-58
2023/02/10 07:41:48;;;;;;;37.10;22.70;;;;;;;2.13;51.57;103839.02;107043;1273;22535;-57
2023/02/10 07:44:15;;;;;;;32.70;21.90;;;;;;;2.18;51.54;103837.46;106378;1270;1002984;-57
2023/02/10 07:46:42;;;;;;;30.00;18.90;;;;;;;2.21;51.54;103840.77;106362;1267;1002767;-57
2023/02/10 07:49:10;;;;;;;28.80;18.00;;;;;;;2.24;51.22;103843.00;106348;1267;1003608;-57
2023/02/10 07:51:37;;;;;;;31.20;19.10;;;;;;;2.29;50.82;103842.27;107034;1268;24258;-57
2023/02/10 07:54:05;;;;;;;34.70;22.20;;;;;;;2.34;50.89;103842.41;107104;1258;25349;-57
2023/02/10 07:56:32;;;;;;;32.40;22.40;;;;;;;2.38;51.75;103838.38;106442;1267;1003061;-57
2023/02/10 07:58:59;;;;;;;39.30;23.70;;;;;;;2.38;52.29;103836.52;106832;1270;25475;-57
2023/02/10 08:01:27;;;;;;;38.90;24.70;;;;;;;2.37;52.49;103833.71;107156;1267;25347;-57
2023/02/10 08:03:54;;;;;;;36.60;23.50;;;;;;;2.38;52.88;103829.46;106907;1252;22549;-57
2023/02/10 08:06:22;;;;;;;37.60;24.60;;;;;;;2.40;52.93;103829.77;106390;1266;1003606;-57
2023/02/10 08:12:13;;;;;;;40.20;25.80;;;;;;;2.42;52.90;103820.82;103654;1299;544966;-59
2023/02/10 08:14:42;;;;;;;43.00;25.60;;;;;;;2.35;53.20;103820.54;105833;1285;25368;-58
2023/02/10 08:17:10;;;;;;;35.80;24.80;;;;;;;2.30;53.39;103818.38;105061;1286;1003172;-58
2023/02/10 08:19:39;;;;;;;40.00;24.70;;;;;;;2.28;53.96;103815.84;105886;1282;25377;-58
2023/02/10 08:22:08;;;;;;;40.80;25.00;;;;;;;2.31;53.92;103817.73;105907;1282;22552;-59
2023/02/10 08:24:37;;;;;;;39.00;24.30;;;;;;;2.37;53.82;103817.95;105822;1290;22565;-58
2023/02/10 08:30:25;;;;;;;35.20;24.30;;;;;;;2.55;53.63;103818.52;103716;1298;544903;-58
2023/02/10 08:32:54;;;;;;;37.80;23.10;;;;;;;2.58;53.34;103816.61;105538;1281;1003097;-58
2023/02/10 08:35:23;;;;;;;34.70;23.30;;;;;;;2.60;53.11;103815.70;106175;1281;25389;-58
2023/02/10 08:37:52;;;;;;;35.40;23.90;;;;;;;2.61;53.27;103816.81;105449;1282;1003566;-58
2023/02/10 08:40:20;;;;;;;32.90;22.00;;;;;;;2.63;53.07;103815.55;106732;1273;25345;-59
2023/02/10 08:42:51;;;;;;;32.70;22.10;;;;;;;2.66;52.92;103814.18;105751;1273;1003839;-59
2023/02/10 08:45:20;;;;;;;33.30;21.90;;;;;;;2.65;52.61;103813.12;106612;1271;25361;-58
2023/02/10 08:47:49;;;;;;;34.50;21.90;;;;;;;2.65;52.62;103812.59;106733;1271;25449;-59
2023/02/10 08:50:17;;;;;;;35.20;22.40;;;;;;;2.69;52.85;103807.19;106748;1273;22532;-58
2023/02/10 08:52:46;;;;;;;36.70;22.90;;;;;;;2.74;52.70;103808.15;106682;1271;25360;-59
2023/02/10 08:55:15;;;;;;;31.20;20.70;;;;;;;2.78;52.55;103804.99;106725;1272;25337;-58
2023/02/10 08:57:45;;;;;;;32.40;21.90;;;;;;;2.84;52.39;103805.00;106798;1273;25360;-59
2023/02/10 09:00:14;;;;;;;31.50;21.60;;;;;;;2.90;51.94;103802.74;106736;1276;25529;-58
2023/02/10 09:02:42;;;;;;;35.20;22.00;;;;;;;2.94;51.51;103793.56;106541;1273;25342;-59
2023/02/10 09:05:11;;;;;;;30.20;20.00;;;;;;;3.03;51.53;103792.86;106766;1270;25404;-58
2023/02/10 09:07:41;;;;;;;32.60;21.60;;;;;;;3.09;51.18;103786.38;105901;1271;1003442;-58
2023/02/10 09:10:10;;;;;;;31.60;20.10;;;;;;;3.11;50.96;103784.23;106580;1271;22529;-58
2023/02/10 09:12:42;;;;;;;30.20;19.50;;;;;;;3.15;51.02;103782.25;106396;1278;25421;-58
2023/02/10 09:15:11;;;;;;;27.80;20.00;;;;;;;3.18;50.43;103777.60;106630;1273;22529;-59
2023/02/10 09:17:39;;;;;;;29.10;20.00;;;;;;;3.18;50.42;103772.98;105379;1273;1016304;-58
2023/02/10 09:20:10;;;;;;;29.80;19.20;;;;;;;3.16;50.40;103773.40;105915;1272;1002862;-59
2023/02/10 09:22:38;;;;;;;29.70;18.50;;;;;;;3.14;50.34;103768.11;105949;1273;1003462;-59
2023/02/10 09:25:07;;;;;;;27.80;18.00;;;;;;;3.14;50.37;103764.02;105842;1271;1002958;-58
2023/02/10 09:27:36;;;;;;;27.10;18.80;;;;;;;3.17;50.30;103762.98;106470;1271;23263;-59
2023/02/10 09:30:05;;;;;;;26.60;18.00;;;;;;;3.20;49.88;103763.52;106658;1276;25521;-58
2023/02/10 09:32:34;;;;;;;30.00;19.10;;;;;;;3.25;49.75;103760.38;106887;1273;24406;-59
2023/02/10 09:35:04;;;;;;;27.40;18.20;;;;;;;3.31;49.44;103760.19;106786;1272;25351;-58
2023/02/10 09:37:33;;;;;;;24.10;15.90;;;;;;;3.38;49.73;103762.27;106143;1274;1003592;-58
2023/02/10 09:40:01;;;;;;;25.80;16.90;;;;;;;3.43;49.21;103759.94;106765;1272;25359;-58
2023/02/10 09:42:58;;;;;;;23.90;15.70;;;;;;;3.49;49.42;103758.09;106832;1272;25379;-59
2023/02/10 09:45:29;;;;;;;24.60;17.10;;;;;;;3.55;48.81;103754.98;106843;1272;22632;-58
2023/02/10 09:48:22;;;;;;;28.20;18.70;;;;;;;3.62;48.52;103751.91;106022;1272;1004111;-58
2023/02/10 09:51:05;;;;;;;25.20;16.50;;;;;;;3.66;48.19;103748.70;106816;1263;25439;-58
2023/02/10 09:53:33;;;;;;;27.90;18.00;;;;;;;3.67;47.83;103750.33;106005;1272;1003836;-58
2023/02/10 09:56:04;;;;;;;24.30;15.80;;;;;;;3.67;47.90;103748.77;106018;1272;1003746;-58
2023/02/10 09:58:37;;;;;;;23.90;16.60;;;;;;;3.66;47.32;103747.00;106731;1272;24278;-58
2023/02/10 10:01:24;;;;;;;22.30;15.60;;;;;;;3.66;47.48;103745.43;106760;1272;25239;-58
2023/02/10 10:04:01;;;;;;;45.20;27.40;;;;;;;3.68;47.18;103745.04;106718;1271;22539;-58
2023/02/10 10:06:41;;;;;;;39.10;22.90;;;;;;;3.69;47.37;103744.27;106793;1272;25417;-58
2023/02/10 10:09:09;;;;;;;32.60;20.40;;;;;;;3.74;46.95;103741.44;106782;1272;22530;-58
2023/02/10 10:11:46;;;;;;;29.10;17.60;;;;;;;3.79;46.31;103735.15;106844;1271;25356;-58
2023/02/10 10:14:25;;;;;;;29.60;17.70;;;;;;;3.84;46.04;103731.64;106858;1272;25291;-58
2023/02/10 10:17:08;;;;;;;29.40;16.80;;;;;;;3.90;46.17;103733.17;106054;1272;1003653;-58
2023/02/10 10:19:49;;;;;;;25.60;16.10;;;;;;;3.96;45.84;103732.67;106077;1272;1003401;-58
2023/02/10 10:22:42;;;;;;;20.90;14.70;;;;;;;4.00;45.44;103730.09;106785;1271;25338;-58
2023/02/10 10:25:43;;;;;;;28.00;16.00;;;;;;;4.03;45.54;103725.79;106008;1272;1003376;-58
2023/02/10 10:28:40;;;;;;;22.60;15.20;;;;;;;4.07;45.62;103719.14;106656;1275;22589;-58
2023/02/10 10:31:17;;;;;;;24.50;15.30;;;;;;;4.12;45.46;103713.55;106047;1272;1003654;-58
2023/02/10 10:33:50;;;;;;;20.70;15.40;;;;;;;4.17;45.32;103707.99;106681;1276;24402;-58
2023/02/10 10:36:27;;;;;;;36.20;22.80;;;;;;;4.24;45.44;103704.40;106840;1272;22536;-58
2023/02/10 10:38:59;;;;;;;32.20;19.50;;;;;;;4.29;45.03;103704.34;106794;1273;24377;-58
2023/02/10 10:41:30;;;;;;;27.90;19.40;;;;;;;4.35;44.71;103701.88;106452;1275;24295;-58
2023/02/10 10:43:58;;;;;;;22.60;15.70;;;;;;;4.42;44.86;103699.45;106738;1272;22531;-58
2023/02/10 10:46:47;;;;;;;21.30;14.60;;;;;;;4.51;45.05;103696.29;106798;1271;25338;-58
2023/02/10 10:49:16;;;;;;;20.70;13.60;;;;;;;4.63;44.78;103696.41;106724;1272;22657;-58
2023/02/10 10:51:47;;;;;;;20.00;13.10;;;;;;;4.73;44.55;103695.88;106843;1272;22533;-58
2023/02/10 10:54:18;;;;;;;18.10;12.90;;;;;;;4.83;44.54;103692.89;106705;1272;22533;-58
2023/02/10 10:56:50;;;;;;;18.10;12.30;;;;;;;4.92;44.23;103686.99;106748;1272;24281;-58
2023/02/10 10:59:31;;;;;;;20.00;14.10;;;;;;;5.01;44.11;103684.15;106615;1276;23913;-58
2023/02/10 11:01:59;;;;;;;17.80;12.70;;;;;;;5.10;43.99;103684.23;106709;1272;22516;-58
2023/02/10 11:04:28;;;;;;;19.00;12.90;;;;;;;5.18;43.71;103682.52;106718;1267;23205;-58
2023/02/10 11:06:59;;;;;;;19.70;12.50;;;;;;;5.24;43.68;103675.25;106683;1275;22531;-58
2023/02/10 11:09:32;;;;;;;16.80;11.40;;;;;;;5.30;43.67;103673.27;106532;1270;25401;-58
2023/02/10 11:12:19;;;;;;;19.80;13.60;;;;;;;5.34;43.41;103670.73;106530;1272;24209;-58
2023/02/10 11:14:53;;;;;;;17.10;12.10;;;;;;;5.38;43.15;103671.63;106334;1270;25415;-58
2023/02/10 11:17:25;;;;;;;18.80;12.40;;;;;;;5.43;43.16;103668.39;106641;1270;22750;-58
2023/02/10 11:20:02;;;;;;;16.70;10.80;;;;;;;5.46;42.95;103661.30;106578;1271;22546;-58
2023/02/10 11:22:31;;;;;;;15.40;10.20;;;;;;;5.49;42.42;103661.43;106588;1270;24475;-58
2023/02/10 11:25:21;;;;;;;16.70;10.70;;;;;;;5.52;42.31;103659.52;106829;1270;25418;-58
2023/02/10 11:27:52;;;;;;;12.60;9.70;;;;;;;5.56;42.10;103652.80;106837;1270;24931;-58
2023/02/10 11:30:26;;;;;;;;;;;;;;;5.60;41.52;103645.75;106569;1278;22507;-58
2023/02/10 11:32:54;;;;;;;11.00;7.70;;;;;;;5.65;41.38;103642.91;106782;1272;25429;-58
2023/02/10 11:35:24;;;;;;;10.00;6.60;;;;;;;5.68;40.79;103637.14;106757;1270;25471;-58
2023/02/10 11:37:55;;;;;;;10.30;6.10;;;;;;;5.72;40.02;103631.64;106617;1270;22547;-58
2023/02/10 11:40:26;;;;;;;11.20;6.20;;;;;;;5.76;39.34;103626.48;106850;1272;22542;-58
2023/02/10 11:42:57;;;;;;;8.70;6.30;;;;;;;5.82;39.15;103617.10;107135;1267;25352;-58
2023/02/10 11:45:31;;;;;;;10.80;5.90;;;;;;;5.87;39.36;103615.98;106359;1267;1003817;-59
2023/02/10 11:48:12;;;;;;;6.50;5.20;;;;;;;5.94;39.21;103617.14;106287;1267;1002862;-58
2023/02/10 11:50:41;;;;;;;8.30;6.10;;;;;;;6.00;38.76;103609.98;107089;1267;24383;-58
2023/02/10 11:53:31;;;;;;;8.60;6.20;;;;;;;6.05;38.55;103604.87;106819;1273;24295;-58
2023/02/10 11:56:18;;;;;;;8.00;5.20;;;;;;;6.10;38.88;103602.67;106059;1267;1002894;-58
2023/02/10 11:59:06;;;;;;;7.90;5.80;;;;;;;6.12;38.75;103601.02;107044;1269;25536;-58
2023/02/10 12:01:57;;;;;;;8.30;5.60;;;;;;;6.13;38.69;103597.61;106836;1269;24271;-58
2023/02/10 12:04:44;;;;;;;7.90;5.70;;;;;;;6.13;38.97;103601.27;107038;1269;25420;-58
2023/02/10 12:07:34;;;;;;;7.30;5.10;;;;;;;6.15;39.37;103602.71;106743;1269;1003814;-58
2023/02/10 12:10:23;;;;;;;10.10;5.90;;;;;;;6.17;39.63;103596.25;106451;1269;25414;-58
2023/02/10 12:12:57;;;;;;;7.70;5.30;;;;;;;6.18;39.82;103592.65;106699;1275;24281;-58
2023/02/10 12:15:51;;;;;;;10.00;5.90;;;;;;;6.17;39.81;103592.98;106644;1276;22532;-58
2023/02/10 12:18:32;;;;;;;12.20;5.30;;;;;;;6.17;40.06;103590.40;105370;1280;1003461;-58
2023/02/10 12:21:17;;;;;;;7.70;5.40;;;;;;;6.19;40.42;103586.84;106100;1280;25424;-58
2023/02/10 12:24:17;;;;;;;7.60;5.50;;;;;;;6.20;40.80;103585.34;105857;1280;24240;-58
2023/02/10 12:27:04;;;;;;;8.50;6.10;;;;;;;6.21;40.88;103585.04;106140;1280;25644;-58
2023/02/10 12:29:57;;;;;;;11.90;6.90;;;;;;;6.22;41.05;103579.73;106139;1281;25369;-58
2023/02/10 12:32:52;;;;;;;6.80;5.30;;;;;;;6.26;41.29;103582.48;105370;1268;1003402;-58
2023/02/10 12:35:40;;;;;;;9.10;5.80;;;;;;;6.29;41.28;103577.61;106060;1280;23879;-58
2023/02/10 12:38:38;;;;;;;10.70;6.50;;;;;;;6.30;41.77;103576.45;105415;1281;1002910;-58
2023/02/10 12:41:26;;;;;;;8.70;6.10;;;;;;;6.32;41.73;103571.90;106176;1281;22531;-58
2023/02/10 12:43:58;;;;;;;6.70;5.20;;;;;;;6.35;41.30;103570.09;106093;1280;25383;-58
2023/02/10 12:46:30;;;;;;;7.40;5.00;;;;;;;6.37;40.04;103568.46;106139;1280;25246;-58
2023/02/10 12:49:34;;;;;;;5.70;4.80;;;;;;;6.39;39.91;103564.75;106415;1275;22539;-58
2023/02/10 12:52:10;;;;;;;6.90;4.30;;;;;;;6.42;38.05;103562.80;106452;1275;25379;-58
2023/02/10 12:54:50;;;;;;;4.90;4.10;;;;;;;6.44;36.04;103564.42;106518;1275;25298;-58
2023/02/10 12:57:28;;;;;;;6.00;4.40;;;;;;;6.48;34.91;103565.45;107056;1269;22574;-58
2023/02/10 12:59:59;;;;;;;5.50;3.70;;;;;;;6.51;33.70;103567.45;106864;1270;25309;-58
2023/02/10 13:02:32;;;;;;;4.80;4.10;;;;;;;6.54;33.15;103567.05;106819;1270;25433;-58
2023/02/10 13:05:04;;;;;;;4.60;3.70;;;;;;;6.57;32.35;103567.20;106861;1267;22762;-58
2023/02/10 13:07:49;;;;;;;6.10;4.20;;;;;;;6.61;32.15;103566.79;106190;1267;1002895;-58
2023/02/10 13:10:37;;;;;;;6.30;4.20;;;;;;;6.64;31.96;103564.66;107149;1269;24319;-58
2023/02/10 13:13:11;;;;;;;4.40;3.30;;;;;;;6.66;31.94;103565.80;106814;1272;22530;-58
2023/02/10 13:16:03;;;;;;;4.50;2.90;;;;;;;6.62;31.69;103565.45;107034;1252;22540;-58
2023/02/10 13:18:39;;;;;;;3.90;2.90;;;;;;;6.70;31.30;103568.89;106900;1273;22534;-58
2023/02/10 13:21:13;;;;;;;3.10;2.40;;;;;;;6.68;30.85;103574.34;107151;1267;24215;-58
2023/02/10 13:23:44;;;;;;;2.90;2.40;;;;;;;6.71;30.22;103577.03;106340;1269;1002554;-58
2023/02/10 13:26:22;;;;;;;3.40;2.30;;;;;;;6.74;29.80;103572.83;106358;1271;1003811;-58
2023/02/10 13:29:10;;;;;;;4.10;2.40;;;;;;;6.74;29.60;103569.92;106931;1267;25638;-58
2023/02/10 13:31:48;;;;;;;2.80;2.20;;;;;;;6.75;29.51;103570.64;106821;1276;22576;-57
2023/02/10 13:34:31;;;;;;;2.70;2.10;;;;;;;6.76;29.23;103572.74;106892;1267;24053;-57
2023/02/10 13:37:27;;;;;;;3.70;2.50;;;;;;;6.77;29.18;103570.69;107074;1267;24193;-57
2023/02/10 13:40:01;;;;;;;4.60;3.00;;;;;;;6.76;28.92;103571.90;106774;1267;24234;-57
2023/02/10 13:42:38;;;;;;;3.00;2.20;;;;;;;6.76;28.52;103573.28;107064;1267;25369;-60
2023/02/10 13:45:15;;;;;;;3.10;2.00;;;;;;;6.75;28.06;103578.06;106853;1275;22647;-59
2023/02/10 13:47:48;;;;;;;2.30;2.00;;;;;;;6.75;27.91;103578.56;107067;1269;22530;-58
2023/02/10 13:50:23;;;;;;;4.60;2.80;;;;;;;6.74;27.93;103581.28;107130;1267;22749;-59
2023/02/10 13:52:59;;;;;;;3.20;2.30;;;;;;;6.73;27.92;103583.33;106853;1274;23913;-59
2023/02/10 13:55:34;;;;;;;2.30;2.00;;;;;;;6.72;27.81;103584.16;106787;1272;22608;-56
2023/02/10 13:58:03;;;;;;;2.20;1.90;;;;;;;6.71;27.94;103581.20;105840;1272;1002891;-56
2023/02/10 14:00:53;;;;;;;2.30;2.00;;;;;;;6.70;27.79;103573.02;106738;1270;25569;-56
2023/02/10 14:03:30;;;;;;;3.10;2.20;;;;;;;6.68;27.62;103570.87;106794;1270;22538;-57
2023/02/10 14:06:06;;;;;;;3.40;2.20;;;;;;;6.58;27.67;103569.14;106779;1272;22646;-56
2023/02/10 14:08:36;;;;;;;2.80;2.20;;;;;;;6.56;27.76;103570.78;106850;1270;22549;-56